Oscar Walters — WDC3799 — position and weather

sailwx.info

Track history (hours):
 
Tides and Currents Weather Stations Pressure Air Temp Water Temp Dewpoint Dewpoint Depression Visibility Wind Speed Wind Dir Waves Ship Positions

Oscar Walters

Owner: Pine Bluff Sand & Gravel Company, Pine Bluff, AR. More information available from US FCC via Universal Licensing System and Coast Guard Vessel Documentation Center.

Last reported at 2016-Jun-28 04:33 UTC. Time now 2016-Jun-28 06:06 UTC.
Position N 32°16' W 090°59'.

Length 20 m; draft 2 m.

Type: Towing. MMSI: 367014390.

Date/timePositionNaut miles runAvg speedWind from/ knotsBaromVisibWave heightAir tempDewpointWater temp
2016-Jun-28 04:33N 32°16' W 090°59'0 0.0
2016-Jun-28 03:33N 32°16' W 090°59'0 0.0
2016-Jun-28 02:33N 32°16' W 090°59'0 0.0
2016-Jun-28 01:33N 32°16' W 090°59'0 0.0
2016-Jun-28 00:33N 32°16' W 090°59'0 0.0
2016-Jun-27 23:33N 32°16' W 090°59'0 0.0
2016-Jun-27 22:33N 32°16' W 090°59'4 4.0
2016-Jun-27 21:33N 32°18' W 090°55'3 2.7
2016-Jun-27 20:33N 32°21' W 090°53'1 0.8
2016-Jun-27 19:33N 32°21' W 090°53'1 1.5
2016-Jun-27 18:33N 32°20' W 090°54'6 5.7
2016-Jun-27 17:33N 32°23' W 090°60'1 1.2
2016-Jun-27 16:33N 32°24' W 090°59'0 0.3
2016-Jun-27 15:33N 32°24' W 090°59'0 0.3
2016-Jun-27 14:33N 32°24' W 090°59'0 0.1
2016-Jun-27 13:33N 32°24' W 090°59'0 0.3
2016-Jun-27 12:33N 32°23' W 090°59'0 0.0
2016-Jun-27 11:33N 32°23' W 090°59'0 0.0
2016-Jun-27 10:33N 32°23' W 090°59'0 0.0
2016-Jun-27 09:33N 32°23' W 090°59'0 0.0
2016-Jun-27 08:33N 32°23' W 090°59'0 0.0
2016-Jun-27 07:33N 32°23' W 090°59'0 0.0
2016-Jun-27 06:33N 32°23' W 090°59'0 0.0
2016-Jun-27 05:33N 32°23' W 090°59'0 0.0
2016-Jun-27 04:33N 32°23' W 090°59'0 0.0
2016-Jun-27 03:33N 32°23' W 090°59'0 0.0
2016-Jun-27 02:33N 32°23' W 090°59'0 0.0
2016-Jun-27 01:33N 32°23' W 090°59'0 0.0
2016-Jun-27 00:33N 32°23' W 090°59'0 0.0
2016-Jun-26 23:33N 32°23' W 090°59'0 0.0
2016-Jun-26 22:33N 32°23' W 090°59'0 0.0
2016-Jun-26 21:33N 32°23' W 090°59'0 0.3
2016-Jun-26 20:33N 32°23' W 090°60'1 1.0
2016-Jun-26 19:33N 32°24' W 090°59'0 0.1
2016-Jun-26 18:33N 32°24' W 090°59'3 2.8
2016-Jun-26 17:33N 32°21' W 090°60'2 1.8
2016-Jun-26 16:33N 32°21' W 090°58'3 2.7
2016-Jun-26 15:33N 32°20' W 090°54'1 0.7
2016-Jun-26 14:33N 32°21' W 090°54'0 0.4
2016-Jun-26 13:33N 32°20' W 090°54'6 5.8
2016-Jun-26 12:33N 32°24' W 090°59'0 0.1
2016-Jun-26 11:33N 32°23' W 090°59'0 0.0
2016-Jun-26 10:33N 32°23' W 090°59'0 0.0
2016-Jun-26 09:33N 32°23' W 090°59'0 0.0
2016-Jun-26 08:33N 32°23' W 090°59'0 0.0
2016-Jun-26 07:33N 32°23' W 090°59'0 0.0
2016-Jun-26 06:33N 32°23' W 090°59'0 0.0
2016-Jun-26 05:33N 32°23' W 090°59'0 0.0
2016-Jun-26 04:33N 32°23' W 090°59'0 0.0
2016-Jun-26 03:33N 32°23' W 090°59'0 0.0
2016-Jun-26 02:33N 32°23' W 090°59'0 0.0
2016-Jun-26 01:33N 32°23' W 090°59'0 0.0
2016-Jun-26 00:33N 32°23' W 090°59'0 0.0
2016-Jun-25 23:33N 32°23' W 090°59'0 0.0
2016-Jun-25 22:33N 32°23' W 090°59'0 0.0
2016-Jun-25 21:33N 32°23' W 090°59'0 0.1
2016-Jun-25 20:33N 32°24' W 090°59'0 0.0
2016-Jun-25 19:34N 32°24' W 090°59'0 0.0
2016-Jun-25 18:33N 32°24' W 090°59'0 0.0
2016-Jun-25 17:32N 32°24' W 090°59'0 0.0
2016-Jun-25 16:33N 32°24' W 090°59'0 0.0
2016-Jun-25 15:33N 32°24' W 090°59'0 0.0
2016-Jun-25 14:34N 32°24' W 090°59'0 0.1
2016-Jun-25 13:33N 32°24' W 090°59'0 0.0
2016-Jun-25 12:33N 32°24' W 090°59'1 0.5
2016-Jun-25 11:33N 32°24' W 090°59'0 0.0
2016-Jun-25 10:33N 32°24' W 090°59'0 0.0
2016-Jun-25 09:32N 32°24' W 090°59'0 0.0
2016-Jun-25 08:33N 32°24' W 090°59'0 0.0
2016-Jun-25 07:33N 32°24' W 090°59'0 0.0
2016-Jun-25 06:32N 32°24' W 090°59'0 0.0
2016-Jun-25 05:33N 32°24' W 090°59'0 0.0
2016-Jun-25 04:33N 32°24' W 090°59'0 0.0
2016-Jun-25 03:33N 32°24' W 090°59'0 0.0
2016-Jun-25 02:33N 32°24' W 090°59'0 0.0
2016-Jun-25 01:33N 32°24' W 090°59'0 0.0
2016-Jun-25 00:33N 32°24' W 090°59'0 0.0
2016-Jun-24 23:33N 32°24' W 090°59'0 0.0
2016-Jun-24 22:33N 32°24' W 090°59'1 0.9
2016-Jun-24 21:33N 32°23' W 090°60'3 2.9
2016-Jun-24 20:33N 32°21' W 090°58'3 3.3
2016-Jun-24 19:33N 32°20' W 090°54'1 0.6
2016-Jun-24 18:33N 32°21' W 090°54'6 6.0
2016-Jun-24 17:33N 32°24' W 090°59'1 0.7
2016-Jun-24 16:33N 32°25' W 090°60'10 7.8
2016-Jun-24 15:17N 32°33' W 091°06'  
Track history (hours):
 
Tides and Currents Weather Stations Pressure Air Temp Water Temp Dewpoint Dewpoint Depression Visibility Wind Speed Wind Dir Waves Ship Positions

Oscar Walters

Owner: Pine Bluff Sand & Gravel Company, Pine Bluff, AR. More information available from US FCC via Universal Licensing System and Coast Guard Vessel Documentation Center.

Last reported at 2016-Jun-28 04:33 UTC. Time now 2016-Jun-28 06:06 UTC.
Position N 32°16' W 090°59'.

Length 20 m; draft 2 m.

Type: Towing. MMSI: 367014390.

Date/timePositionNaut miles runAvg speedWind from/ knotsBaromVisibWave heightAir tempDewpointWater temp
2016-Jun-28 04:33N 32°16' W 090°59'0 0.0
2016-Jun-28 03:33N 32°16' W 090°59'0 0.0
2016-Jun-28 02:33N 32°16' W 090°59'0 0.0
2016-Jun-28 01:33N 32°16' W 090°59'0 0.0
2016-Jun-28 00:33N 32°16' W 090°59'0 0.0
2016-Jun-27 23:33N 32°16' W 090°59'0 0.0
2016-Jun-27 22:33N 32°16' W 090°59'4 4.0
2016-Jun-27 21:33N 32°18' W 090°55'3 2.7
2016-Jun-27 20:33N 32°21' W 090°53'1 0.8
2016-Jun-27 19:33N 32°21' W 090°53'1 1.5
2016-Jun-27 18:33N 32°20' W 090°54'6 5.7
2016-Jun-27 17:33N 32°23' W 090°60'1 1.2
2016-Jun-27 16:33N 32°24' W 090°59'0 0.3
2016-Jun-27 15:33N 32°24' W 090°59'0 0.3
2016-Jun-27 14:33N 32°24' W 090°59'0 0.1
2016-Jun-27 13:33N 32°24' W 090°59'0 0.3
2016-Jun-27 12:33N 32°23' W 090°59'0 0.0
2016-Jun-27 11:33N 32°23' W 090°59'0 0.0
2016-Jun-27 10:33N 32°23' W 090°59'0 0.0
2016-Jun-27 09:33N 32°23' W 090°59'0 0.0
2016-Jun-27 08:33N 32°23' W 090°59'0 0.0
2016-Jun-27 07:33N 32°23' W 090°59'0 0.0
2016-Jun-27 06:33N 32°23' W 090°59'0 0.0
2016-Jun-27 05:33N 32°23' W 090°59'0 0.0
2016-Jun-27 04:33N 32°23' W 090°59'0 0.0
2016-Jun-27 03:33N 32°23' W 090°59'0 0.0
2016-Jun-27 02:33N 32°23' W 090°59'0 0.0
2016-Jun-27 01:33N 32°23' W 090°59'0 0.0
2016-Jun-27 00:33N 32°23' W 090°59'0 0.0
2016-Jun-26 23:33N 32°23' W 090°59'0 0.0
2016-Jun-26 22:33N 32°23' W 090°59'0 0.0
2016-Jun-26 21:33N 32°23' W 090°59'0 0.3
2016-Jun-26 20:33N 32°23' W 090°60'1 1.0
2016-Jun-26 19:33N 32°24' W 090°59'0 0.1
2016-Jun-26 18:33N 32°24' W 090°59'3 2.8
2016-Jun-26 17:33N 32°21' W 090°60'2 1.8
2016-Jun-26 16:33N 32°21' W 090°58'3 2.7
2016-Jun-26 15:33N 32°20' W 090°54'1 0.7
2016-Jun-26 14:33N 32°21' W 090°54'0 0.4
2016-Jun-26 13:33N 32°20' W 090°54'6 5.8
2016-Jun-26 12:33N 32°24' W 090°59'0 0.1
2016-Jun-26 11:33N 32°23' W 090°59'0 0.0
2016-Jun-26 10:33N 32°23' W 090°59'0 0.0
2016-Jun-26 09:33N 32°23' W 090°59'0 0.0
2016-Jun-26 08:33N 32°23' W 090°59'0 0.0
2016-Jun-26 07:33N 32°23' W 090°59'0 0.0
2016-Jun-26 06:33N 32°23' W 090°59'0 0.0
2016-Jun-26 05:33N 32°23' W 090°59'0 0.0
2016-Jun-26 04:33N 32°23' W 090°59'0 0.0
2016-Jun-26 03:33N 32°23' W 090°59'0 0.0
2016-Jun-26 02:33N 32°23' W 090°59'0 0.0
2016-Jun-26 01:33N 32°23' W 090°59'0 0.0
2016-Jun-26 00:33N 32°23' W 090°59'0 0.0
2016-Jun-25 23:33N 32°23' W 090°59'0 0.0
2016-Jun-25 22:33N 32°23' W 090°59'0 0.0
2016-Jun-25 21:33N 32°23' W 090°59'0 0.1
2016-Jun-25 20:33N 32°24' W 090°59'0 0.0
2016-Jun-25 19:34N 32°24' W 090°59'0 0.0
2016-Jun-25 18:33N 32°24' W 090°59'0 0.0
2016-Jun-25 17:32N 32°24' W 090°59'0 0.0
2016-Jun-25 16:33N 32°24' W 090°59'0 0.0
2016-Jun-25 15:33N 32°24' W 090°59'0 0.0
2016-Jun-25 14:34N 32°24' W 090°59'0 0.1
2016-Jun-25 13:33N 32°24' W 090°59'0 0.0
2016-Jun-25 12:33N 32°24' W 090°59'1 0.5
2016-Jun-25 11:33N 32°24' W 090°59'0 0.0
2016-Jun-25 10:33N 32°24' W 090°59'0 0.0
2016-Jun-25 09:32N 32°24' W 090°59'0 0.0
2016-Jun-25 08:33N 32°24' W 090°59'0 0.0
2016-Jun-25 07:33N 32°24' W 090°59'0 0.0
2016-Jun-25 06:32N 32°24' W 090°59'0 0.0
2016-Jun-25 05:33N 32°24' W 090°59'0 0.0
2016-Jun-25 04:33N 32°24' W 090°59'0 0.0
2016-Jun-25 03:33N 32°24' W 090°59'0 0.0
2016-Jun-25 02:33N 32°24' W 090°59'0 0.0
2016-Jun-25 01:33N 32°24' W 090°59'0 0.0
2016-Jun-25 00:33N 32°24' W 090°59'0 0.0
2016-Jun-24 23:33N 32°24' W 090°59'0 0.0
2016-Jun-24 22:33N 32°24' W 090°59'1 0.9
2016-Jun-24 21:33N 32°23' W 090°60'3 2.9
2016-Jun-24 20:33N 32°21' W 090°58'3 3.3
2016-Jun-24 19:33N 32°20' W 090°54'1 0.6
2016-Jun-24 18:33N 32°21' W 090°54'6 6.0
2016-Jun-24 17:33N 32°24' W 090°59'1 0.7
2016-Jun-24 16:33N 32°25' W 090°60'10 7.8
2016-Jun-24 15:17N 32°33' W 091°06'  

Dump ship's entire track history